sensor_id;sensor_type;location;lat;lon;timestamp;pressure;altitude;pressure_sealevel;temperature;humidity
36502;BME280;25393;46.108;3.390;2022-09-09T00:01:59;97819.75;;;16.99;83.74
36502;BME280;25393;46.108;3.390;2022-09-09T00:04:32;97819.56;;;16.94;84.45
36502;BME280;25393;46.108;3.390;2022-09-09T00:07:20;97817.75;;;16.88;84.92
36502;BME280;25393;46.108;3.390;2022-09-09T00:21:18;97827.91;;;16.73;86.39
36502;BME280;25393;46.108;3.390;2022-09-09T00:23:50;97823.22;;;16.62;86.72
36502;BME280;25393;46.108;3.390;2022-09-09T00:26:41;97826.78;;;16.36;87.77
36502;BME280;25393;46.108;3.390;2022-09-09T00:31:38;97834.84;;;16.16;90.39
36502;BME280;25393;46.108;3.390;2022-09-09T00:34:21;97836.25;;;16.32;89.13
36502;BME280;25393;46.108;3.390;2022-09-09T00:36:52;97836.47;;;16.30;88.80
36502;BME280;25393;46.108;3.390;2022-09-09T00:39:36;97810.78;;;16.16;89.99
36502;BME280;25393;46.108;3.390;2022-09-09T00:42:24;97831.75;;;16.19;91.87
36502;BME280;25393;46.108;3.390;2022-09-09T00:44:55;97831.75;;;16.32;91.78
36502;BME280;25393;46.108;3.390;2022-09-09T00:47:45;97833.13;;;16.48;90.67
36502;BME280;25393;46.108;3.390;2022-09-09T00:58:17;97813.22;;;16.31;91.61
36502;BME280;25393;46.108;3.390;2022-09-09T01:00:46;97802.97;;;16.08;92.79
36502;BME280;25393;46.108;3.390;2022-09-09T01:11:34;97839.97;;;16.31;91.29
36502;BME280;25393;46.108;3.390;2022-09-09T01:16:36;97825.16;;;16.28;91.22
36502;BME280;25393;46.108;3.390;2022-09-09T01:19:05;97829.88;;;16.26;91.63
36502;BME280;25393;46.108;3.390;2022-09-09T01:21:40;97837.13;;;16.06;93.78
36502;BME280;25393;46.108;3.390;2022-09-09T01:24:40;97838.38;;;15.97;95.10
36502;BME280;25393;46.108;3.390;2022-09-09T01:27:10;97841.03;;;16.04;93.76
36502;BME280;25393;46.108;3.390;2022-09-09T01:29:37;97830.34;;;16.10;92.91
36502;BME280;25393;46.108;3.390;2022-09-09T01:32:37;97841.47;;;15.87;95.41
36502;BME280;25393;46.108;3.390;2022-09-09T01:35:13;97829.94;;;15.80;95.64
36502;BME280;25393;46.108;3.390;2022-09-09T01:37:41;97824.00;;;15.85;95.30
36502;BME280;25393;46.108;3.390;2022-09-09T01:40:08;97831.41;;;15.83;95.85
36502;BME280;25393;46.108;3.390;2022-09-09T01:42:35;97840.03;;;15.72;97.05
36502;BME280;25393;46.108;3.390;2022-09-09T01:45:01;97822.56;;;15.63;97.52
36502;BME280;25393;46.108;3.390;2022-09-09T01:47:28;97821.31;;;15.85;95.32
36502;BME280;25393;46.108;3.390;2022-09-09T01:49:54;97827.22;;;16.20;92.94
36502;BME280;25393;46.108;3.390;2022-09-09T01:52:21;97816.16;;;16.10;92.32
36502;BME280;25393;46.108;3.390;2022-09-09T01:54:48;97816.97;;;16.17;91.72
36502;BME280;25393;46.108;3.390;2022-09-09T02:00:10;97824.78;;;16.18;90.71
36502;BME280;25393;46.108;3.390;2022-09-09T02:05:40;97816.94;;;16.23;89.50
36502;BME280;25393;46.108;3.390;2022-09-09T02:08:11;97830.97;;;15.99;91.25
36502;BME280;25393;46.108;3.390;2022-09-09T02:10:49;97820.69;;;15.96;91.03
36502;BME280;25393;46.108;3.390;2022-09-09T02:13:19;97825.84;;;15.91;90.39
36502;BME280;25393;46.108;3.390;2022-09-09T02:18:42;97807.16;;;15.78;90.43
36502;BME280;25393;46.108;3.390;2022-09-09T02:21:13;97826.06;;;15.70;91.26
36502;BME280;25393;46.108;3.390;2022-09-09T02:23:42;97831.78;;;15.34;97.06
36502;BME280;25393;46.108;3.390;2022-09-09T02:26:11;97821.22;;;14.93;100.00
36502;BME280;25393;46.108;3.390;2022-09-09T02:28:40;97802.78;;;15.05;100.00
36502;BME280;25393;46.108;3.390;2022-09-09T02:31:08;97826.38;;;15.01;100.00
36502;BME280;25393;46.108;3.390;2022-09-09T02:33:41;97832.13;;;14.98;100.00
36502;BME280;25393;46.108;3.390;2022-09-09T02:36:11;97832.78;;;15.20;100.00
36502;BME280;25393;46.108;3.390;2022-09-09T02:38:45;97832.56;;;15.34;98.07
36502;BME280;25393;46.108;3.390;2022-09-09T02:41:12;97821.91;;;15.34;97.42
36502;BME280;25393;46.108;3.390;2022-09-09T02:43:38;97830.53;;;15.36;98.70
36502;BME280;25393;46.108;3.390;2022-09-09T02:49:00;97835.66;;;15.31;98.86
36502;BME280;25393;46.108;3.390;2022-09-09T02:51:56;97840.00;;;15.39;97.67
36502;BME280;25393;46.108;3.390;2022-09-09T02:54:29;97830.53;;;15.23;99.26
36502;BME280;25393;46.108;3.390;2022-09-09T02:57:19;97833.38;;;15.15;100.00
36502;BME280;25393;46.108;3.390;2022-09-09T02:59:48;97825.38;;;15.22;100.00
36502;BME280;25393;46.108;3.390;2022-09-09T03:02:15;97799.09;;;15.12;99.69
36502;BME280;25393;46.108;3.390;2022-09-09T03:04:42;97813.69;;;15.23;98.79
36502;BME280;25393;46.108;3.390;2022-09-09T03:07:11;97821.28;;;15.32;98.15
36502;BME280;25393;46.108;3.390;2022-09-09T03:09:38;97799.88;;;15.06;98.92
36502;BME280;25393;46.108;3.390;2022-09-09T03:12:04;97796.03;;;15.28;97.63
36502;BME280;25393;46.108;3.390;2022-09-09T03:14:31;97813.06;;;15.27;98.99
36502;BME280;25393;46.108;3.390;2022-09-09T03:16:58;97814.09;;;15.26;98.76
36502;BME280;25393;46.108;3.390;2022-09-09T03:19:27;97806.09;;;15.33;97.19
36502;BME280;25393;46.108;3.390;2022-09-09T03:21:57;97812.25;;;15.33;95.85
36502;BME280;25393;46.108;3.390;2022-09-09T03:24:27;97814.53;;;15.36;95.56
36502;BME280;25393;46.108;3.390;2022-09-09T03:26:57;97800.94;;;15.25;95.27
36502;BME280;25393;46.108;3.390;2022-09-09T03:29:23;97795.59;;;15.25;95.29
36502;BME280;25393;46.108;3.390;2022-09-09T03:31:54;97812.47;;;15.38;95.48
36502;BME280;25393;46.108;3.390;2022-09-09T03:34:22;97822.38;;;15.51;94.71
36502;BME280;25393;46.108;3.390;2022-09-09T03:36:49;97812.69;;;15.43;94.13
36502;BME280;25393;46.108;3.390;2022-09-09T03:39:15;97808.34;;;15.16;94.65
36502;BME280;25393;46.108;3.390;2022-09-09T03:41:42;97810.38;;;15.08;93.93
36502;BME280;25393;46.108;3.390;2022-09-09T03:44:12;97819.78;;;14.97;94.37
36502;BME280;25393;46.108;3.390;2022-09-09T03:46:39;97828.78;;;14.89;93.95
36502;BME280;25393;46.108;3.390;2022-09-09T03:49:06;97820.59;;;14.84;94.35
36502;BME280;25393;46.108;3.390;2022-09-09T03:51:32;97803.94;;;14.89;96.09
36502;BME280;25393;46.108;3.390;2022-09-09T03:54:02;97826.78;;;14.98;96.35
36502;BME280;25393;46.108;3.390;2022-09-09T03:56:31;97807.88;;;14.93;96.79
36502;BME280;25393;46.108;3.390;2022-09-09T03:58:58;97811.53;;;14.79;97.43
36502;BME280;25393;46.108;3.390;2022-09-09T04:01:24;97824.06;;;14.85;96.62
36502;BME280;25393;46.108;3.390;2022-09-09T04:03:51;97826.69;;;14.72;97.09
36502;BME280;25393;46.108;3.390;2022-09-09T04:06:18;97832.41;;;14.62;96.21
36502;BME280;25393;46.108;3.390;2022-09-09T04:08:47;97836.31;;;14.66;95.12
36502;BME280;25393;46.108;3.390;2022-09-09T04:11:15;97841.69;;;14.73;96.94
36502;BME280;25393;46.108;3.390;2022-09-09T04:13:42;97816.66;;;14.80;98.00
36502;BME280;25393;46.108;3.390;2022-09-09T04:16:11;97835.78;;;14.90;97.84
36502;BME280;25393;46.108;3.390;2022-09-09T04:18:40;97823.63;;;14.75;98.87
36502;BME280;25393;46.108;3.390;2022-09-09T04:21:08;97839.59;;;14.68;99.54
36502;BME280;25393;46.108;3.390;2022-09-09T04:23:34;97838.78;;;14.68;100.00
36502;BME280;25393;46.108;3.390;2022-09-09T04:26:03;97842.47;;;14.67;99.03
36502;BME280;25393;46.108;3.390;2022-09-09T04:28:32;97809.75;;;14.45;98.66
36502;BME280;25393;46.108;3.390;2022-09-09T04:31:11;97835.63;;;14.51;98.48
36502;BME280;25393;46.108;3.390;2022-09-09T04:33:39;97836.03;;;14.48;98.87
36502;BME280;25393;46.108;3.390;2022-09-09T04:36:07;97839.94;;;14.52;99.49
36502;BME280;25393;46.108;3.390;2022-09-09T04:38:34;97813.44;;;14.44;99.15
36502;BME280;25393;46.108;3.390;2022-09-09T04:41:00;97844.91;;;14.62;99.40
36502;BME280;25393;46.108;3.390;2022-09-09T04:43:27;97831.72;;;14.54;100.00
36502;BME280;25393;46.108;3.390;2022-09-09T04:45:56;97854.56;;;14.63;100.00
36502;BME280;25393;46.108;3.390;2022-09-09T04:48:23;97848.84;;;14.72;100.00
36502;BME280;25393;46.108;3.390;2022-09-09T04:50:59;97832.00;;;14.65;100.00
36502;BME280;25393;46.108;3.390;2022-09-09T04:53:28;97852.97;;;14.75;100.00
36502;BME280;25393;46.108;3.390;2022-09-09T04:56:05;97833.22;;;14.63;100.00
36502;BME280;25393;46.108;3.390;2022-09-09T04:58:33;97849.31;;;14.89;100.00
36502;BME280;25393;46.108;3.390;2022-09-09T05:01:08;97852.81;;;14.96;100.00
36502;BME280;25393;46.108;3.390;2022-09-09T05:03:35;97850.22;;;15.09;99.98
36502;BME280;25393;46.108;3.390;2022-09-09T05:06:18;97860.66;;;14.97;100.00
36502;BME280;25393;46.108;3.390;2022-09-09T05:08:45;97850.97;;;14.90;100.00
36502;BME280;25393;46.108;3.390;2022-09-09T05:11:22;97862.47;;;14.90;100.00
36502;BME280;25393;46.108;3.390;2022-09-09T05:13:50;97860.00;;;14.89;100.00
36502;BME280;25393;46.108;3.390;2022-09-09T05:16:17;97863.28;;;14.91;100.00
36502;BME280;25393;46.108;3.390;2022-09-09T05:18:45;97867.00;;;14.96;100.00
36502;BME280;25393;46.108;3.390;2022-09-09T05:21:17;97854.47;;;14.97;100.00
36502;BME280;25393;46.108;3.390;2022-09-09T05:23:45;97870.31;;;15.05;100.00
36502;BME280;25393;46.108;3.390;2022-09-09T05:26:15;97868.91;;;15.16;100.00
36502;BME280;25393;46.108;3.390;2022-09-09T05:28:43;97851.47;;;15.20;100.00
36502;BME280;25393;46.108;3.390;2022-09-09T05:31:12;97846.56;;;15.30;96.89
36502;BME280;25393;46.108;3.390;2022-09-09T05:33:42;97854.78;;;15.41;95.12
36502;BME280;25393;46.108;3.390;2022-09-09T05:36:11;97845.31;;;15.45;95.53
36502;BME280;25393;46.108;3.390;2022-09-09T05:38:44;97877.84;;;15.62;94.94
36502;BME280;25393;46.108;3.390;2022-09-09T05:41:12;97875.78;;;15.64;95.43
36502;BME280;25393;46.108;3.390;2022-09-09T05:43:42;97862.25;;;15.79;93.09
36502;BME280;25393;46.108;3.390;2022-09-09T05:46:13;97883.63;;;15.85;93.22
36502;BME280;25393;46.108;3.390;2022-09-09T05:48:42;97888.31;;;15.70;92.87
36502;BME280;25393;46.108;3.390;2022-09-09T05:51:12;97891.59;;;15.59;93.84
36502;BME280;25393;46.108;3.390;2022-09-09T05:53:39;97888.09;;;15.59;93.55
36502;BME280;25393;46.108;3.390;2022-09-09T05:56:08;97899.00;;;15.57;93.15
36502;BME280;25393;46.108;3.390;2022-09-09T05:58:37;97900.66;;;15.65;92.52
36502;BME280;25393;46.108;3.390;2022-09-09T06:03:37;97899.38;;;15.47;94.41
36502;BME280;25393;46.108;3.390;2022-09-09T06:06:07;97899.38;;;15.47;95.39
36502;BME280;25393;46.108;3.390;2022-09-09T06:08:35;97899.41;;;15.54;95.12
36502;BME280;25393;46.108;3.390;2022-09-09T06:11:14;97907.22;;;15.62;93.27
36502;BME280;25393;46.108;3.390;2022-09-09T06:13:41;97902.50;;;15.71;92.68
36502;BME280;25393;46.108;3.390;2022-09-09T06:16:12;97907.84;;;15.71;92.66
36502;BME280;25393;46.108;3.390;2022-09-09T06:18:40;97905.59;;;15.81;90.91
36502;BME280;25393;46.108;3.390;2022-09-09T06:21:12;97897.81;;;15.86;90.42
36502;BME280;25393;46.108;3.390;2022-09-09T06:23:40;97884.03;;;15.95;88.45
36502;BME280;25393;46.108;3.390;2022-09-09T06:26:18;97909.09;;;16.01;88.58
36502;BME280;25393;46.108;3.390;2022-09-09T06:28:49;97900.88;;;16.03;88.60
36502;BME280;25393;46.108;3.390;2022-09-09T06:31:17;97906.63;;;15.99;89.49
36502;BME280;25393;46.108;3.390;2022-09-09T06:33:53;97901.69;;;16.03;89.31
36502;BME280;25393;46.108;3.390;2022-09-09T06:36:24;97899.44;;;16.07;88.79
36502;BME280;25393;46.108;3.390;2022-09-09T06:38:51;97882.19;;;15.83;90.96
36502;BME280;25393;46.108;3.390;2022-09-09T06:41:19;97907.25;;;15.95;91.43
36502;BME280;25393;46.108;3.390;2022-09-09T06:43:47;97907.88;;;15.97;92.25
36502;BME280;25393;46.108;3.390;2022-09-09T06:46:19;97910.34;;;15.98;93.14
36502;BME280;25393;46.108;3.390;2022-09-09T06:48:46;97911.56;;;16.09;92.97
36502;BME280;25393;46.108;3.390;2022-09-09T06:51:16;97910.09;;;16.26;91.34
36502;BME280;25393;46.108;3.390;2022-09-09T06:53:45;97903.28;;;16.43;88.60
36502;BME280;25393;46.108;3.390;2022-09-09T06:56:28;97908.66;;;16.57;87.83
36502;BME280;25393;46.108;3.390;2022-09-09T06:58:59;97888.47;;;16.41;89.83
36502;BME280;25393;46.108;3.390;2022-09-09T07:01:33;97902.47;;;16.49;90.03
36502;BME280;25393;46.108;3.390;2022-09-09T07:04:01;97898.34;;;16.54;88.54
36502;BME280;25393;46.108;3.390;2022-09-09T07:06:35;97902.19;;;16.84;85.58
36502;BME280;25393;46.108;3.390;2022-09-09T07:09:05;97904.63;;;16.92;84.85
36502;BME280;25393;46.108;3.390;2022-09-09T07:11:38;97889.97;;;17.01;81.65
36502;BME280;25393;46.108;3.390;2022-09-09T07:14:05;97907.53;;;17.28;82.15
36502;BME280;25393;46.108;3.390;2022-09-09T07:16:32;97902.63;;;17.63;79.89
36502;BME280;25393;46.108;3.390;2022-09-09T07:19:03;97900.66;;;18.02;74.90
36502;BME280;25393;46.108;3.390;2022-09-09T07:21:33;97910.59;;;18.26;74.85
36502;BME280;25393;46.108;3.390;2022-09-09T07:24:02;97894.88;;;18.47;72.58
36502;BME280;25393;46.108;3.390;2022-09-09T07:26:31;97910.59;;;18.51;71.25
36502;BME280;25393;46.108;3.390;2022-09-09T07:28:57;97914.16;;;18.38;71.67
36502;BME280;25393;46.108;3.390;2022-09-09T07:31:27;97917.75;;;18.32;73.54
36502;BME280;25393;46.108;3.390;2022-09-09T07:33:54;97908.13;;;18.24;73.58
36502;BME280;25393;46.108;3.390;2022-09-09T07:36:26;97923.50;;;18.60;71.45
36502;BME280;25393;46.108;3.390;2022-09-09T07:39:01;97901.28;;;18.53;69.75
36502;BME280;25393;46.108;3.390;2022-09-09T07:44:08;97917.75;;;18.75;71.29
36502;BME280;25393;46.108;3.390;2022-09-09T07:46:35;97912.91;;;19.02;70.76
36502;BME280;25393;46.108;3.390;2022-09-09T07:49:02;97917.34;;;19.44;68.21
36502;BME280;25393;46.108;3.390;2022-09-09T07:51:33;97913.88;;;19.67;66.65
36502;BME280;25393;46.108;3.390;2022-09-09T07:54:06;97921.78;;;19.80;65.28
36502;BME280;25393;46.108;3.390;2022-09-09T07:56:35;97913.66;;;19.68;67.83
36502;BME280;25393;46.108;3.390;2022-09-09T07:59:02;97906.13;;;19.88;66.47
36502;BME280;25393;46.108;3.390;2022-09-09T08:01:34;97900.31;;;20.15;65.30
36502;BME280;25393;46.108;3.390;2022-09-09T08:04:06;97897.16;;;20.18;66.84
36502;BME280;25393;46.108;3.390;2022-09-09T08:06:38;97895.16;;;20.13;64.44
36502;BME280;25393;46.108;3.390;2022-09-09T08:09:08;97900.19;;;20.21;65.08
36502;BME280;25393;46.108;3.390;2022-09-09T08:11:35;97902.22;;;20.61;66.61
36502;BME280;25393;46.108;3.390;2022-09-09T08:14:05;97898.00;;;21.56;64.42
36502;BME280;25393;46.108;3.390;2022-09-09T08:16:36;97900.91;;;22.50;59.21
36502;BME280;25393;46.108;3.390;2022-09-09T08:19:04;97896.91;;;22.69;58.56
36502;BME280;25393;46.108;3.390;2022-09-09T08:21:32;97907.19;;;22.72;59.06
36502;BME280;25393;46.108;3.390;2022-09-09T08:24:03;97902.78;;;23.04;53.94
36502;BME280;25393;46.108;3.390;2022-09-09T08:26:39;97910.66;;;23.54;53.44
36502;BME280;25393;46.108;3.390;2022-09-09T08:29:07;97912.16;;;24.25;53.05
36502;BME280;25393;46.108;3.390;2022-09-09T08:31:36;97904.81;;;24.21;50.54
36502;BME280;25393;46.108;3.390;2022-09-09T08:34:04;97915.38;;;23.64;52.21
36502;BME280;25393;46.108;3.390;2022-09-09T08:36:35;97903.94;;;22.92;54.12
36502;BME280;25393;46.108;3.390;2022-09-09T08:39:04;97910.97;;;22.71;57.85
36502;BME280;25393;46.108;3.390;2022-09-09T08:47:07;97921.88;;;22.26;53.29
36502;BME280;25393;46.108;3.390;2022-09-09T08:55:57;97925.19;;;21.55;56.34
36502;BME280;25393;46.108;3.390;2022-09-09T08:58:35;97925.53;;;21.18;57.21
36502;BME280;25393;46.108;3.390;2022-09-09T09:04:10;97920.06;;;21.13;57.95
36502;BME280;25393;46.108;3.390;2022-09-09T09:06:54;97922.06;;;21.18;58.32
36502;BME280;25393;46.108;3.390;2022-09-09T09:12:50;97913.72;;;21.76;57.13
36502;BME280;25393;46.108;3.390;2022-09-09T09:15:25;97917.78;;;22.23;54.20
36502;BME280;25393;46.108;3.390;2022-09-09T09:17:57;97912.69;;;22.10;53.97
36502;BME280;25393;46.108;3.390;2022-09-09T09:23:15;97918.47;;;21.29;54.72
36502;BME280;25393;46.108;3.390;2022-09-09T09:25:45;97894.44;;;20.87;55.27
36502;BME280;25393;46.108;3.390;2022-09-09T09:28:16;97924.31;;;20.74;57.23
36502;BME280;25393;46.108;3.390;2022-09-09T09:31:03;97926.91;;;20.34;55.40
36502;BME280;25393;46.108;3.390;2022-09-09T09:33:43;97925.34;;;20.04;58.90
36502;BME280;25393;46.108;3.390;2022-09-09T09:36:13;97932.47;;;19.98;58.93
36502;BME280;25393;46.108;3.390;2022-09-09T09:38:56;97942.97;;;20.00;59.65
36502;BME280;25393;46.108;3.390;2022-09-09T09:41:43;97939.00;;;19.61;60.49
36502;BME280;25393;46.108;3.390;2022-09-09T09:44:27;97922.88;;;19.61;60.46
36502;BME280;25393;46.108;3.390;2022-09-09T09:47:14;97956.59;;;19.45;61.81
36502;BME280;25393;46.108;3.390;2022-09-09T09:49:55;97949.09;;;19.17;64.93
36502;BME280;25393;46.108;3.390;2022-09-09T09:52:25;97968.91;;;19.34;66.81
36502;BME280;25393;46.108;3.390;2022-09-09T09:54:54;97966.50;;;19.63;66.71
36502;BME280;25393;46.108;3.390;2022-09-09T09:57:29;97962.03;;;20.39;65.17
36502;BME280;25393;46.108;3.390;2022-09-09T10:00:20;97959.19;;;21.16;61.13
36502;BME280;25393;46.108;3.390;2022-09-09T10:02:47;97963.41;;;21.12;61.70
36502;BME280;25393;46.108;3.390;2022-09-09T10:05:22;97965.88;;;20.90;60.71
36502;BME280;25393;46.108;3.390;2022-09-09T10:08:11;97968.13;;;20.70;60.90
36502;BME280;25393;46.108;3.390;2022-09-09T10:32:55;97968.44;;;21.60;56.72
36502;BME280;25393;46.108;3.390;2022-09-09T10:35:33;97969.59;;;21.35;58.22
36502;BME280;25393;46.108;3.390;2022-09-09T10:38:37;97971.06;;;21.43;59.00
36502;BME280;25393;46.108;3.390;2022-09-09T10:41:24;97979.78;;;21.62;58.60
36502;BME280;25393;46.108;3.390;2022-09-09T10:46:52;97964.06;;;22.32;57.49
36502;BME280;25393;46.108;3.390;2022-09-09T10:55:08;97967.22;;;23.82;55.87
36502;BME280;25393;46.108;3.390;2022-09-09T10:57:41;97946.97;;;25.32;50.90
36502;BME280;25393;46.108;3.390;2022-09-09T11:02:55;97947.97;;;27.05;46.07
36502;BME280;25393;46.108;3.390;2022-09-09T11:05:29;97941.31;;;27.46;43.44
36502;BME280;25393;46.108;3.390;2022-09-09T11:08:01;97944.38;;;27.14;44.59
36502;BME280;25393;46.108;3.390;2022-09-09T11:11:01;97945.81;;;26.06;43.61
36502;BME280;25393;46.108;3.390;2022-09-09T11:13:58;97942.28;;;26.00;45.34
36502;BME280;25393;46.108;3.390;2022-09-09T11:16:30;97947.91;;;25.01;44.74
36502;BME280;25393;46.108;3.390;2022-09-09T11:19:28;97942.00;;;24.30;46.67
36502;BME280;25393;46.108;3.390;2022-09-09T11:21:57;97941.66;;;23.95;47.18
36502;BME280;25393;46.108;3.390;2022-09-09T11:24:35;97936.91;;;24.81;46.82
36502;BME280;25393;46.108;3.390;2022-09-09T11:27:12;97922.06;;;24.83;46.92
36502;BME280;25393;46.108;3.390;2022-09-09T11:38:15;97934.03;;;25.55;45.27
36502;BME280;25393;46.108;3.390;2022-09-09T11:40:42;97929.53;;;25.96;43.84
36502;BME280;25393;46.108;3.390;2022-09-09T11:43:14;97930.06;;;25.98;43.43
36502;BME280;25393;46.108;3.390;2022-09-09T11:45:53;97932.44;;;25.54;43.56
36502;BME280;25393;46.108;3.390;2022-09-09T11:48:31;97923.00;;;25.09;44.92
36502;BME280;25393;46.108;3.390;2022-09-09T11:51:03;97927.53;;;24.94;46.28
36502;BME280;25393;46.108;3.390;2022-09-09T11:53:35;97929.28;;;25.20;47.49
36502;BME280;25393;46.108;3.390;2022-09-09T11:56:11;97922.88;;;25.46;46.84
36502;BME280;25393;46.108;3.390;2022-09-09T11:58:57;97930.53;;;25.59;44.80
36502;BME280;25393;46.108;3.390;2022-09-09T12:01:28;97926.97;;;24.87;45.41
36502;BME280;25393;46.108;3.390;2022-09-09T12:07:47;97924.22;;;24.45;46.70
36502;BME280;25393;46.108;3.390;2022-09-09T12:12:38;97926.00;;;24.29;47.07
36502;BME280;25393;46.108;3.390;2022-09-09T12:17:52;97911.84;;;25.01;46.54
36502;BME280;25393;46.108;3.390;2022-09-09T12:26:07;97911.31;;;26.77;42.84
36502;BME280;25393;46.108;3.390;2022-09-09T12:34:49;97896.09;;;25.65;44.00
36502;BME280;25393;46.108;3.390;2022-09-09T12:36:56;97912.41;;;25.03;44.86
36502;BME280;25393;46.108;3.390;2022-09-09T12:42:00;97914.88;;;24.25;46.60
36502;BME280;25393;46.108;3.390;2022-09-09T12:44:27;97916.28;;;24.33;46.43
36502;BME280;25393;46.108;3.390;2022-09-09T12:47:02;97897.78;;;24.20;46.81
36502;BME280;25393;46.108;3.390;2022-09-09T12:49:36;97903.72;;;25.01;45.68
36502;BME280;25393;46.108;3.390;2022-09-09T12:52:08;97907.59;;;25.20;44.65
36502;BME280;25393;46.108;3.390;2022-09-09T12:54:44;97890.22;;;25.16;45.73
36502;BME280;25393;46.108;3.390;2022-09-09T12:57:13;97910.53;;;26.46;46.48
36502;BME280;25393;46.108;3.390;2022-09-09T12:59:43;97902.03;;;28.01;43.60
36502;BME280;25393;46.108;3.390;2022-09-09T13:02:18;97888.75;;;29.52;43.49
36502;BME280;25393;46.108;3.390;2022-09-09T13:04:46;97881.41;;;30.22;38.63
36502;BME280;25393;46.108;3.390;2022-09-09T13:07:13;97883.19;;;30.32;38.98
36502;BME280;25393;46.108;3.390;2022-09-09T13:09:44;97880.31;;;30.23;39.49
36502;BME280;25393;46.108;3.390;2022-09-09T13:12:21;97877.06;;;30.21;36.83
36502;BME280;25393;46.108;3.390;2022-09-09T13:14:53;97878.28;;;29.41;35.68
36502;BME280;25393;46.108;3.390;2022-09-09T13:17:24;97881.16;;;28.25;38.93
36502;BME280;25393;46.108;3.390;2022-09-09T13:19:52;97872.84;;;27.14;38.60
36502;BME280;25393;46.108;3.390;2022-09-09T13:22:20;97883.81;;;26.89;41.35
36502;BME280;25393;46.108;3.390;2022-09-09T13:27:40;97866.47;;;28.50;39.46
36502;BME280;25393;46.108;3.390;2022-09-09T13:33:21;97873.31;;;28.76;36.53
36502;BME280;25393;46.108;3.390;2022-09-09T13:38:23;97857.09;;;29.33;36.61
36502;BME280;25393;46.108;3.390;2022-09-09T13:41:01;97855.84;;;29.44;35.50
36502;BME280;25393;46.108;3.390;2022-09-09T13:43:35;97864.41;;;28.71;37.37
36502;BME280;25393;46.108;3.390;2022-09-09T13:46:06;97865.94;;;28.48;39.14
36502;BME280;25393;46.108;3.390;2022-09-09T13:48:56;97861.81;;;28.80;38.16
36502;BME280;25393;46.108;3.390;2022-09-09T13:51:49;97852.16;;;28.92;37.43
36502;BME280;25393;46.108;3.390;2022-09-09T13:54:33;97842.53;;;29.18;37.22
36502;BME280;25393;46.108;3.390;2022-09-09T13:57:17;97856.38;;;27.88;36.14
36502;BME280;25393;46.108;3.390;2022-09-09T13:59:47;97859.78;;;26.31;39.98
36502;BME280;25393;46.108;3.390;2022-09-09T14:02:37;97860.66;;;25.14;40.75
36502;BME280;25393;46.108;3.390;2022-09-09T14:05:09;97845.66;;;26.24;39.49
36502;BME280;25393;46.108;3.390;2022-09-09T14:07:38;97850.75;;;26.46;39.86
36502;BME280;25393;46.108;3.390;2022-09-09T14:13:21;97864.34;;;24.83;43.77
36502;BME280;25393;46.108;3.390;2022-09-09T14:15:48;97858.84;;;24.78;43.93
36502;BME280;25393;46.108;3.390;2022-09-09T14:18:14;97863.69;;;24.66;44.22
36502;BME280;25393;46.108;3.390;2022-09-09T14:20:41;97865.38;;;24.77;45.24
36502;BME280;25393;46.108;3.390;2022-09-09T14:23:10;97867.22;;;24.71;44.00
36502;BME280;25393;46.108;3.390;2022-09-09T14:25:40;97853.53;;;24.93;44.57
36502;BME280;25393;46.108;3.390;2022-09-09T14:28:09;97843.13;;;24.75;43.57
36502;BME280;25393;46.108;3.390;2022-09-09T14:30:40;97843.59;;;25.19;42.66
36502;BME280;25393;46.108;3.390;2022-09-09T14:33:10;97859.59;;;25.15;43.60
36502;BME280;25393;46.108;3.390;2022-09-09T14:35:37;97861.09;;;24.91;43.70
36502;BME280;25393;46.108;3.390;2022-09-09T14:38:05;97848.69;;;24.53;44.17
36502;BME280;25393;46.108;3.390;2022-09-09T14:40:31;97860.69;;;24.67;44.90
36502;BME280;25393;46.108;3.390;2022-09-09T14:42:57;97855.06;;;24.27;44.64
36502;BME280;25393;46.108;3.390;2022-09-09T14:45:24;97853.72;;;23.98;45.33
36502;BME280;25393;46.108;3.390;2022-09-09T14:47:51;97873.59;;;23.55;48.29
36502;BME280;25393;46.108;3.390;2022-09-09T14:50:19;97890.66;;;23.55;50.03
36502;BME280;25393;46.108;3.390;2022-09-09T14:52:46;97891.13;;;23.25;51.90
36502;BME280;25393;46.108;3.390;2022-09-09T14:55:14;97895.72;;;23.03;53.31
36502;BME280;25393;46.108;3.390;2022-09-09T14:57:41;97893.25;;;22.80;53.92
36502;BME280;25393;46.108;3.390;2022-09-09T15:00:09;97909.72;;;22.62;54.57
36502;BME280;25393;46.108;3.390;2022-09-09T15:02:39;97903.88;;;22.48;55.39
36502;BME280;25393;46.108;3.390;2022-09-09T15:05:06;97898.72;;;22.30;56.39
36502;BME280;25393;46.108;3.390;2022-09-09T15:07:40;97896.44;;;22.05;57.00
36502;BME280;25393;46.108;3.390;2022-09-09T15:10:09;97906.63;;;21.86;58.53
36502;BME280;25393;46.108;3.390;2022-09-09T15:12:40;97914.44;;;21.71;58.78
36502;BME280;25393;46.108;3.390;2022-09-09T15:15:08;97918.22;;;21.42;59.76
36502;BME280;25393;46.108;3.390;2022-09-09T15:17:35;97915.66;;;21.35;60.96
36502;BME280;25393;46.108;3.390;2022-09-09T15:20:05;97919.56;;;21.28;61.34
36502;BME280;25393;46.108;3.390;2022-09-09T15:22:34;97913.97;;;21.18;62.49
36502;BME280;25393;46.108;3.390;2022-09-09T15:25:05;97911.16;;;21.01;63.05
36502;BME280;25393;46.108;3.390;2022-09-09T15:27:32;97912.47;;;20.99;63.80
36502;BME280;25393;46.108;3.390;2022-09-09T15:30:00;97932.13;;;20.99;64.58
36502;BME280;25393;46.108;3.390;2022-09-09T15:32:27;97930.06;;;20.89;65.36
36502;BME280;25393;46.108;3.390;2022-09-09T15:34:56;97938.13;;;20.78;66.68
36502;BME280;25393;46.108;3.390;2022-09-09T15:37:25;97938.00;;;20.84;66.58
36502;BME280;25393;46.108;3.390;2022-09-09T15:39:51;97923.16;;;20.82;67.42
36502;BME280;25393;46.108;3.390;2022-09-09T15:42:18;97939.63;;;20.97;67.37
36502;BME280;25393;46.108;3.390;2022-09-09T15:44:44;97915.66;;;20.84;67.85
36502;BME280;25393;46.108;3.390;2022-09-09T15:47:12;97939.97;;;21.01;68.27
36502;BME280;25393;46.108;3.390;2022-09-09T15:49:42;97908.03;;;20.92;68.39
36502;BME280;25393;46.108;3.390;2022-09-09T15:52:11;97899.69;;;20.94;68.74